Latest Weather Observations for South Channel Island

IDV60901

Issued at 2:21 am EDT Saturday 16 November 2019 (issued every 10 minutes, with the page automatically refreshed every 10 minutes)

About weather observations | Map of Melbourne area stations | Latest observations for Melbourne area | Other Formats
Station Details ID: 086344 Name: SOUTH CHANNEL ISLAND Lat: -38.31 Lon: 144.80 Height: 9.0 m
Data from the previous 72 hours. | See also: Recent months at South Channel Island
Date/Time
EDT
Temp
°C
App
Temp
°C
Dew
Point
°C
Rel
Hum
%
Delta-T
°C
Wind Press
QNH
hPa
Press
MSL
hPa
Rain since
9am
mm
Dir  Spd
km/h
Gust
km/h
Spd
kts
Gust
kts
16/02:00am - - - - - WNW 32 35 17 19 - - -
16/01:30am - - - - - WNW 32 35 17 19 - - -
16/01:00am - - - - - WNW 33 37 18 20 - - -
16/12:30am - - - - - W 35 41 19 22 - - -
16/12:00am - - - - - W 33 39 18 21 - - -
 
Date/Time
EDT
Temp
°C
App
Temp
°C
Dew
Point
°C
Rel
Hum
%
Delta-T
°C
Wind Press
QNH
hPa
Press
MSL
hPa
Rain since
9am
mm
Dir  Spd
km/h
Gust
km/h
Spd
kts
Gust
kts
15/11:30pm - - - - - W 30 37 16 20 - - -
15/11:00pm - - - - - W 33 37 18 20 - - -
15/10:30pm - - - - - W 37 44 20 24 - - -
15/10:24pm - - - - - WSW 37 43 20 23 - - -
15/10:00pm - - - - - SW 37 41 20 22 - - -
15/09:30pm - - - - - SW 41 48 22 26 - - -
15/09:00pm - - - - - SW 35 43 19 23 - - -
15/08:30pm - - - - - SW 37 43 20 23 - - -
15/08:00pm - - - - - SW 35 39 19 21 - - -
15/07:30pm - - - - - SW 41 48 22 26 - - -
15/07:00pm - - - - - SW 44 54 24 29 - - -
15/06:30pm - - - - - SW 41 50 22 27 - - -
15/06:00pm - - - - - SW 46 54 25 29 - - -
15/05:30pm - - - - - SW 43 52 23 28 - - -
15/05:00pm - - - - - SW 44 56 24 30 - - -
15/04:30pm - - - - - SW 54 65 29 35 - - -
15/04:00pm - - - - - SW 54 67 29 36 - - -
15/03:30pm - - - - - SW 44 56 24 30 - - -
15/03:14pm - - - - - SSW 28 46 15 25 - - -
15/03:00pm - - - - - SW 30 35 16 19 - - -
15/02:49pm - - - - - WSW 26 35 14 19 - - -
15/02:30pm - - - - - WNW 13 15 7 8 - - -
15/02:00pm - - - - - SW 17 22 9 12 - - -
15/01:36pm - - - - - W 28 46 15 25 - - -
15/01:30pm - - - - - WSW 20 30 11 16 - - -
15/01:00pm - - - - - SW 24 30 13 16 - - -
15/12:30pm - - - - - SW 32 39 17 21 - - -
15/12:00pm - - - - - W 33 41 18 22 - - -
15/11:30am - - - - - WNW 35 41 19 22 - - -
15/11:00am - - - - - WNW 35 43 19 23 - - -
15/10:30am - - - - - WNW 37 44 20 24 - - -
15/10:00am - - - - - WNW 39 44 21 24 - - -
15/09:30am - - - - - WNW 37 46 20 25 - - -
15/09:00am - - - - - WNW 37 48 20 26 - - -
15/08:30am - - - - - WNW 33 39 18 21 - - -
15/08:00am - - - - - WNW 37 43 20 23 - - -
15/07:30am - - - - - WNW 35 44 19 24 - - -
15/07:00am - - - - - WNW 37 43 20 23 - - -
15/06:30am - - - - - WNW 43 52 23 28 - - -
15/06:00am - - - - - WNW 35 41 19 22 - - -
15/05:30am - - - - - WNW 35 46 19 25 - - -
15/05:00am - - - - - WNW 37 43 20 23 - - -
15/04:30am - - - - - WNW 41 50 22 27 - - -
15/04:00am - - - - - WNW 35 41 19 22 - - -
15/03:30am - - - - - WNW 33 39 18 21 - - -
15/03:00am - - - - - W 39 48 21 26 - - -
15/02:30am - - - - - W 46 57 25 31 - - -
15/02:00am - - - - - W 46 56 25 30 - - -
15/01:30am - - - - - W 41 52 22 28 - - -
15/01:00am - - - - - W 41 48 22 26 - - -
15/12:30am - - - - - W 41 50 22 27 - - -
15/12:00am - - - - - W 35 39 19 21 - - -
 
Date/Time
EDT
Temp
°C
App
Temp
°C
Dew
Point
°C
Rel
Hum
%
Delta-T
°C
Wind Press
QNH
hPa
Press
MSL
hPa
Rain since
9am
mm
Dir  Spd
km/h
Gust
km/h
Spd
kts
Gust
kts
14/11:30pm - - - - - W 33 39 18 21 - - -
14/11:00pm - - - - - W 32 37 17 20 - - -
14/10:30pm - - - - - W 32 35 17 19 - - -
14/10:00pm - - - - - W 30 35 16 19 - - -
14/09:30pm - - - - - W 35 41 19 22 - - -
14/09:00pm - - - - - W 32 35 17 19 - - -
14/08:30pm - - - - - WSW 30 35 16 19 - - -
14/08:00pm - - - - - W 33 39 18 21 - - -
14/07:30pm - - - - - W 30 35 16 19 - - -
14/07:00pm - - - - - W 28 33 15 18 - - -
14/06:30pm - - - - - W 22 26 12 14 - - -
14/06:00pm - - - - - W 28 35 15 19 - - -
14/05:30pm - - - - - W 33 39 18 21 - - -
14/05:00pm - - - - - W 32 35 17 19 - - -
14/04:30pm - - - - - WNW 26 32 14 17 - - -
14/04:00pm - - - - - WNW 33 44 18 24 - - -
14/03:30pm - - - - - NW 33 37 18 20 - - -
14/03:00pm - - - - - WNW 32 37 17 20 - - -
14/02:30pm - - - - - NW 32 39 17 21 - - -
14/02:00pm - - - - - WNW 30 35 16 19 - - -
14/01:30pm - - - - - WNW 26 30 14 16 - - -
14/01:00pm - - - - - NW 33 41 18 22 - - -
14/12:30pm - - - - - NW 33 41 18 22 - - -
14/12:00pm - - - - - NW 37 46 20 25 - - -
14/11:30am - - - - - WNW 39 48 21 26 - - -
14/11:00am - - - - - WNW 41 50 22 27 - - -
14/10:30am - - - - - WNW 43 50 23 27 - - -
14/10:00am - - - - - W 39 46 21 25 - - -
14/09:30am - - - - - WNW 39 52 21 28 - - -
14/09:00am - - - - - WNW 39 48 21 26 - - -
14/08:30am - - - - - WNW 39 48 21 26 - - -
14/08:00am - - - - - WNW 39 48 21 26 - - -
14/07:30am - - - - - WNW 37 46 20 25 - - -
14/07:00am - - - - - WNW 35 43 19 23 - - -
14/06:30am - - - - - WNW 33 39 18 21 - - -
14/06:00am - - - - - WNW 37 46 20 25 - - -
14/05:30am - - - - - WNW 37 46 20 25 - - -
14/05:00am - - - - - WNW 39 44 21 24 - - -
14/04:30am - - - - - WNW 39 46 21 25 - - -
14/04:00am - - - - - W 32 41 17 22 - - -
14/03:30am - - - - - WNW 32 37 17 20 - - -
14/03:00am - - - - - WNW 33 37 18 20 - - -
14/02:30am - - - - - WNW 32 35 17 19 - - -
14/02:00am - - - - - WNW 32 37 17 20 - - -
14/01:30am - - - - - WNW 37 46 20 25 - - -
14/01:00am - - - - - WNW 33 39 18 21 - - -
14/12:30am - - - - - WNW 37 44 20 24 - - -
14/12:00am - - - - - WNW 35 43 19 23 - - -
 
Date/Time
EDT
Temp
°C
App
Temp
°C
Dew
Point
°C
Rel
Hum
%
Delta-T
°C
Wind Press
QNH
hPa
Press
MSL
hPa
Rain since
9am
mm
Dir  Spd
km/h
Gust
km/h
Spd
kts
Gust
kts
13/11:30pm - - - - - WNW 37 43 20 23 - - -
13/11:00pm - - - - - W 37 44 20 24 - - -
13/10:30pm - - - - - W 37 43 20 23 - - -
13/10:00pm - - - - - W 41 46 22 25 - - -
13/09:30pm - - - - - W 41 50 22 27 - - -
13/09:00pm - - - - - W 33 37 18 20 - - -
13/08:30pm - - - - - WSW 22 26 12 14 - - -
13/08:00pm - - - - - WSW 22 26 12 14 - - -
13/07:30pm - - - - - WSW 30 33 16 18 - - -
13/07:00pm - - - - - WSW 28 33 15 18 - - -
13/06:30pm - - - - - WSW 32 37 17 20 - - -
13/06:00pm - - - - - W 32 37 17 20 - - -
13/05:30pm - - - - - WSW 37 43 20 23 - - -
13/05:00pm - - - - - W 39 46 21 25 - - -
13/04:30pm - - - - - W 39 46 21 25 - - -
13/04:00pm - - - - - W 46 57 25 31 - - -
13/03:30pm - - - - - W 48 56 26 30 - - -
13/03:00pm - - - - - W 48 57 26 31 - - -
13/02:30pm - - - - - W 46 52 25 28 - - -
13/02:00pm - - - - - W 48 56 26 30 - - -
13/01:30pm - - - - - W 48 54 26 29 - - -
13/01:00pm - - - - - W 39 50 21 27 - - -
13/12:30pm - - - - - W 46 56 25 30 - - -
13/12:00pm - - - - - W 37 44 20 24 - - -
13/11:30am - - - - - W 35 41 19 22 - - -
13/11:00am - - - - - W 35 41 19 22 - - -
13/10:30am - - - - - W 39 46 21 25 - - -
13/10:00am - - - - - W 43 50 23 27 - - -
13/09:30am - - - - - W 44 52 24 28 - - -
13/09:00am - - - - - WNW 35 43 19 23 - - -
13/08:30am - - - - - WNW 37 43 20 23 - - -
13/08:00am - - - - - WNW 41 48 22 26 - - -
13/07:30am - - - - - WNW 43 52 23 28 - - -
13/07:00am - - - - - WNW 43 52 23 28 - - -
13/06:30am - - - - - WNW 44 52 24 28 - - -
13/06:00am - - - - - WNW 43 50 23 27 - - -
13/05:30am - - - - - WNW 43 50 23 27 - - -
13/05:00am - - - - - WNW 43 50 23 27 - - -
13/04:30am - - - - - WNW 41 52 22 28 - - -
13/04:00am - - - - - WNW 41 50 22 27 - - -
13/03:30am - - - - - WNW 41 50 22 27 - - -
13/03:00am - - - - - W 43 52 23 28 - - -
13/02:30am - - - - - WNW 41 48 22 26 - - -

Latest Capital City Observations: Canberra | Sydney | Melbourne | Brisbane | Adelaide | Perth | Hobart | Darwin

Other formats

Comma delimited format used in spreadsheet applications
http://www.bom.gov.au/fwo/IDV60901/IDV60901.94853.axf

JavaScript Object Notation format (JSON) in row-major order
http://www.bom.gov.au/fwo/IDV60901/IDV60901.94853.json

Data quality

Most of these data are generated automatically and are frequently updated. Quality checks on data are not normally performed. It is possible for incorrect values to appear. Refer to information at About Latest Weather Observations and please check the disclaimer before using these data.